sensor_id;sensor_type;location;lat;lon;timestamp;temperature;humidity
16136;DHT22;8173;48.354;9.248;2023-04-30T00:01:31;7.40;99.90
16136;DHT22;8173;48.354;9.248;2023-04-30T00:03:57;7.40;99.90
16136;DHT22;8173;48.354;9.248;2023-04-30T00:06:24;7.50;99.90
16136;DHT22;8173;48.354;9.248;2023-04-30T00:08:52;7.50;99.90
16136;DHT22;8173;48.354;9.248;2023-04-30T00:11:19;7.50;99.90
16136;DHT22;8173;48.354;9.248;2023-04-30T00:13:45;7.50;99.90
16136;DHT22;8173;48.354;9.248;2023-04-30T00:16:12;7.60;99.90
16136;DHT22;8173;48.354;9.248;2023-04-30T00:18:39;7.70;99.90
16136;DHT22;8173;48.354;9.248;2023-04-30T00:21:06;7.70;99.90
16136;DHT22;8173;48.354;9.248;2023-04-30T00:23:32;7.70;99.90
16136;DHT22;8173;48.354;9.248;2023-04-30T00:26:00;7.80;99.90
16136;DHT22;8173;48.354;9.248;2023-04-30T00:28:27;8.60;99.90
16136;DHT22;8173;48.354;9.248;2023-04-30T00:30:54;7.80;99.90
16136;DHT22;8173;48.354;9.248;2023-04-30T00:33:20;7.90;99.90
16136;DHT22;8173;48.354;9.248;2023-04-30T00:35:47;8.00;99.90
16136;DHT22;8173;48.354;9.248;2023-04-30T00:38:14;7.90;99.90
16136;DHT22;8173;48.354;9.248;2023-04-30T00:40:42;7.90;99.90
16136;DHT22;8173;48.354;9.248;2023-04-30T00:43:10;7.90;99.90
16136;DHT22;8173;48.354;9.248;2023-04-30T00:45:37;7.80;99.90
16136;DHT22;8173;48.354;9.248;2023-04-30T00:48:04;7.80;99.90
16136;DHT22;8173;48.354;9.248;2023-04-30T00:50:30;7.80;99.90
16136;DHT22;8173;48.354;9.248;2023-04-30T00:52:57;7.80;99.90
16136;DHT22;8173;48.354;9.248;2023-04-30T00:55:25;7.70;99.90
16136;DHT22;8173;48.354;9.248;2023-04-30T00:57:52;7.70;99.90
16136;DHT22;8173;48.354;9.248;2023-04-30T01:00:21;7.80;99.90
16136;DHT22;8173;48.354;9.248;2023-04-30T01:02:48;7.80;99.90
16136;DHT22;8173;48.354;9.248;2023-04-30T01:05:15;7.70;99.90
16136;DHT22;8173;48.354;9.248;2023-04-30T01:07:42;7.70;99.90
16136;DHT22;8173;48.354;9.248;2023-04-30T01:10:10;7.70;99.90
16136;DHT22;8173;48.354;9.248;2023-04-30T01:12:42;7.70;99.90
16136;DHT22;8173;48.354;9.248;2023-04-30T01:15:18;7.60;99.90
16136;DHT22;8173;48.354;9.248;2023-04-30T01:17:54;7.60;99.90
16136;DHT22;8173;48.354;9.248;2023-04-30T01:20:22;7.60;99.90
16136;DHT22;8173;48.354;9.248;2023-04-30T01:22:54;7.70;99.90
16136;DHT22;8173;48.354;9.248;2023-04-30T01:25:39;7.80;99.90
16136;DHT22;8173;48.354;9.248;2023-04-30T01:28:09;7.70;99.90
16136;DHT22;8173;48.354;9.248;2023-04-30T01:30:38;7.60;99.90
16136;DHT22;8173;48.354;9.248;2023-04-30T01:33:09;7.70;99.90
16136;DHT22;8173;48.354;9.248;2023-04-30T01:36:13;7.70;99.90
16136;DHT22;8173;48.354;9.248;2023-04-30T01:38:59;7.80;99.90
16136;DHT22;8173;48.354;9.248;2023-04-30T01:41:32;7.80;99.90
16136;DHT22;8173;48.354;9.248;2023-04-30T01:44:11;7.80;99.90
16136;DHT22;8173;48.354;9.248;2023-04-30T01:46:43;7.80;99.90
16136;DHT22;8173;48.354;9.248;2023-04-30T01:49:20;7.70;99.90
16136;DHT22;8173;48.354;9.248;2023-04-30T01:51:54;7.60;99.90
16136;DHT22;8173;48.354;9.248;2023-04-30T01:54:29;7.50;99.90
16136;DHT22;8173;48.354;9.248;2023-04-30T01:57:01;7.40;99.90
16136;DHT22;8173;48.354;9.248;2023-04-30T01:59:31;7.40;99.90
16136;DHT22;8173;48.354;9.248;2023-04-30T02:01:58;7.40;99.90
16136;DHT22;8173;48.354;9.248;2023-04-30T02:04:25;7.50;99.90
16136;DHT22;8173;48.354;9.248;2023-04-30T02:06:52;7.50;99.90
16136;DHT22;8173;48.354;9.248;2023-04-30T02:09:18;7.40;99.90
16136;DHT22;8173;48.354;9.248;2023-04-30T02:11:48;7.40;99.90
16136;DHT22;8173;48.354;9.248;2023-04-30T02:14:15;7.40;99.90
16136;DHT22;8173;48.354;9.248;2023-04-30T02:16:43;7.30;99.90
16136;DHT22;8173;48.354;9.248;2023-04-30T02:19:10;7.20;99.90
16136;DHT22;8173;48.354;9.248;2023-04-30T02:21:36;7.10;99.90
16136;DHT22;8173;48.354;9.248;2023-04-30T02:24:03;7.00;99.90
16136;DHT22;8173;48.354;9.248;2023-04-30T02:26:30;6.90;99.90
16136;DHT22;8173;48.354;9.248;2023-04-30T02:28:57;6.80;99.90
16136;DHT22;8173;48.354;9.248;2023-04-30T02:31:24;6.80;99.90
16136;DHT22;8173;48.354;9.248;2023-04-30T02:33:52;6.70;99.90
16136;DHT22;8173;48.354;9.248;2023-04-30T02:36:19;6.60;99.90
16136;DHT22;8173;48.354;9.248;2023-04-30T02:38:45;6.50;99.90
16136;DHT22;8173;48.354;9.248;2023-04-30T02:41:12;6.40;99.90
16136;DHT22;8173;48.354;9.248;2023-04-30T02:43:39;6.30;99.90
16136;DHT22;8173;48.354;9.248;2023-04-30T02:46:05;6.20;99.90
16136;DHT22;8173;48.354;9.248;2023-04-30T02:48:32;6.20;99.90
16136;DHT22;8173;48.354;9.248;2023-04-30T02:51:00;6.10;99.90
16136;DHT22;8173;48.354;9.248;2023-04-30T02:53:27;6.10;99.90
16136;DHT22;8173;48.354;9.248;2023-04-30T02:55:53;6.10;99.90
16136;DHT22;8173;48.354;9.248;2023-04-30T02:58:20;6.20;99.90
16136;DHT22;8173;48.354;9.248;2023-04-30T03:00:47;6.30;99.90
16136;DHT22;8173;48.354;9.248;2023-04-30T03:03:13;6.30;99.90
16136;DHT22;8173;48.354;9.248;2023-04-30T03:05:40;6.30;99.90
16136;DHT22;8173;48.354;9.248;2023-04-30T03:08:08;6.30;99.90
16136;DHT22;8173;48.354;9.248;2023-04-30T03:10:35;6.20;99.90
16136;DHT22;8173;48.354;9.248;2023-04-30T03:13:01;6.20;99.90
16136;DHT22;8173;48.354;9.248;2023-04-30T03:15:28;6.20;99.90
16136;DHT22;8173;48.354;9.248;2023-04-30T03:17:57;6.20;99.90
16136;DHT22;8173;48.354;9.248;2023-04-30T03:20:24;6.10;99.90
16136;DHT22;8173;48.354;9.248;2023-04-30T03:22:51;6.00;99.90
16136;DHT22;8173;48.354;9.248;2023-04-30T03:25:19;6.00;99.90
16136;DHT22;8173;48.354;9.248;2023-04-30T03:27:45;6.00;99.90
16136;DHT22;8173;48.354;9.248;2023-04-30T03:30:12;6.00;99.90
16136;DHT22;8173;48.354;9.248;2023-04-30T03:32:39;5.90;99.90
16136;DHT22;8173;48.354;9.248;2023-04-30T03:35:06;6.00;99.90
16136;DHT22;8173;48.354;9.248;2023-04-30T03:37:33;6.00;99.90
16136;DHT22;8173;48.354;9.248;2023-04-30T03:40:00;6.00;99.90
16136;DHT22;8173;48.354;9.248;2023-04-30T03:42:29;6.00;99.90
16136;DHT22;8173;48.354;9.248;2023-04-30T03:44:55;6.00;99.90
16136;DHT22;8173;48.354;9.248;2023-04-30T03:47:22;6.00;99.90
16136;DHT22;8173;48.354;9.248;2023-04-30T03:49:49;5.90;99.90
16136;DHT22;8173;48.354;9.248;2023-04-30T03:52:19;5.90;99.90
16136;DHT22;8173;48.354;9.248;2023-04-30T03:54:46;5.80;99.90
16136;DHT22;8173;48.354;9.248;2023-04-30T03:57:12;5.80;99.90
16136;DHT22;8173;48.354;9.248;2023-04-30T03:59:41;5.80;99.90
16136;DHT22;8173;48.354;9.248;2023-04-30T04:02:07;5.70;99.90
16136;DHT22;8173;48.354;9.248;2023-04-30T04:04:34;5.80;99.90
16136;DHT22;8173;48.354;9.248;2023-04-30T04:07:01;5.80;99.90
16136;DHT22;8173;48.354;9.248;2023-04-30T04:09:28;5.80;99.90
16136;DHT22;8173;48.354;9.248;2023-04-30T04:11:54;5.80;99.90
16136;DHT22;8173;48.354;9.248;2023-04-30T04:14:22;5.70;99.90
16136;DHT22;8173;48.354;9.248;2023-04-30T04:16:50;5.70;99.90
16136;DHT22;8173;48.354;9.248;2023-04-30T04:19:17;5.80;99.90
16136;DHT22;8173;48.354;9.248;2023-04-30T04:21:43;5.70;99.90
16136;DHT22;8173;48.354;9.248;2023-04-30T04:24:10;5.60;99.90
16136;DHT22;8173;48.354;9.248;2023-04-30T04:26:37;5.70;99.90
16136;DHT22;8173;48.354;9.248;2023-04-30T04:29:04;5.70;99.90
16136;DHT22;8173;48.354;9.248;2023-04-30T04:31:30;5.80;99.90
16136;DHT22;8173;48.354;9.248;2023-04-30T04:34:01;5.80;99.90
16136;DHT22;8173;48.354;9.248;2023-04-30T04:36:29;5.80;99.90
16136;DHT22;8173;48.354;9.248;2023-04-30T04:38:56;5.80;99.90
16136;DHT22;8173;48.354;9.248;2023-04-30T04:41:26;5.90;99.90
16136;DHT22;8173;48.354;9.248;2023-04-30T04:43:53;6.00;99.90
16136;DHT22;8173;48.354;9.248;2023-04-30T04:46:20;6.00;99.90
16136;DHT22;8173;48.354;9.248;2023-04-30T04:48:47;6.10;99.90
16136;DHT22;8173;48.354;9.248;2023-04-30T04:51:16;6.20;99.90
16136;DHT22;8173;48.354;9.248;2023-04-30T04:53:42;6.20;99.90
16136;DHT22;8173;48.354;9.248;2023-04-30T04:56:09;6.40;99.90
16136;DHT22;8173;48.354;9.248;2023-04-30T04:58:36;6.50;99.90
16136;DHT22;8173;48.354;9.248;2023-04-30T05:01:02;6.80;99.90
16136;DHT22;8173;48.354;9.248;2023-04-30T05:03:30;7.20;99.90
16136;DHT22;8173;48.354;9.248;2023-04-30T05:05:57;7.60;99.90
16136;DHT22;8173;48.354;9.248;2023-04-30T05:08:25;8.00;99.90
16136;DHT22;8173;48.354;9.248;2023-04-30T05:10:52;8.60;99.90
16136;DHT22;8173;48.354;9.248;2023-04-30T05:13:19;9.00;99.90
16136;DHT22;8173;48.354;9.248;2023-04-30T05:15:46;9.50;99.90
16136;DHT22;8173;48.354;9.248;2023-04-30T05:18:12;9.60;99.90
16136;DHT22;8173;48.354;9.248;2023-04-30T05:20:39;9.40;99.90
16136;DHT22;8173;48.354;9.248;2023-04-30T05:23:06;9.30;99.90
16136;DHT22;8173;48.354;9.248;2023-04-30T05:25:34;9.10;99.90
16136;DHT22;8173;48.354;9.248;2023-04-30T05:28:01;8.90;99.90
16136;DHT22;8173;48.354;9.248;2023-04-30T05:30:28;8.90;99.90
16136;DHT22;8173;48.354;9.248;2023-04-30T05:32:55;8.90;99.90
16136;DHT22;8173;48.354;9.248;2023-04-30T05:35:23;8.90;99.90
16136;DHT22;8173;48.354;9.248;2023-04-30T05:37:50;8.70;99.90
16136;DHT22;8173;48.354;9.248;2023-04-30T05:40:16;8.70;99.90
16136;DHT22;8173;48.354;9.248;2023-04-30T05:42:45;8.80;99.90
16136;DHT22;8173;48.354;9.248;2023-04-30T05:45:12;8.70;99.90
16136;DHT22;8173;48.354;9.248;2023-04-30T05:47:41;8.70;99.90
16136;DHT22;8173;48.354;9.248;2023-04-30T05:50:08;8.70;99.90
16136;DHT22;8173;48.354;9.248;2023-04-30T05:52:35;8.70;99.90
16136;DHT22;8173;48.354;9.248;2023-04-30T05:55:02;8.60;99.90
16136;DHT22;8173;48.354;9.248;2023-04-30T05:57:28;8.60;99.90
16136;DHT22;8173;48.354;9.248;2023-04-30T05:59:57;8.50;99.90
16136;DHT22;8173;48.354;9.248;2023-04-30T06:02:24;8.60;99.90
16136;DHT22;8173;48.354;9.248;2023-04-30T06:04:51;8.60;99.90
16136;DHT22;8173;48.354;9.248;2023-04-30T06:07:18;8.70;99.90
16136;DHT22;8173;48.354;9.248;2023-04-30T06:09:44;8.80;99.90
16136;DHT22;8173;48.354;9.248;2023-04-30T06:12:11;8.70;99.90
16136;DHT22;8173;48.354;9.248;2023-04-30T06:14:38;8.70;99.90
16136;DHT22;8173;48.354;9.248;2023-04-30T06:17:11;8.70;99.90
16136;DHT22;8173;48.354;9.248;2023-04-30T06:19:37;8.60;99.90
16136;DHT22;8173;48.354;9.248;2023-04-30T06:22:04;8.70;99.90
16136;DHT22;8173;48.354;9.248;2023-04-30T06:24:31;8.80;99.90
16136;DHT22;8173;48.354;9.248;2023-04-30T06:26:57;8.90;99.90
16136;DHT22;8173;48.354;9.248;2023-04-30T06:29:24;9.00;99.90
16136;DHT22;8173;48.354;9.248;2023-04-30T06:31:51;9.10;99.90
16136;DHT22;8173;48.354;9.248;2023-04-30T06:34:19;9.20;99.90
16136;DHT22;8173;48.354;9.248;2023-04-30T06:36:46;9.30;99.90
16136;DHT22;8173;48.354;9.248;2023-04-30T06:39:14;9.20;99.90
16136;DHT22;8173;48.354;9.248;2023-04-30T06:41:41;9.30;99.90
16136;DHT22;8173;48.354;9.248;2023-04-30T06:44:08;9.30;99.90
16136;DHT22;8173;48.354;9.248;2023-04-30T06:46:35;9.30;99.90
16136;DHT22;8173;48.354;9.248;2023-04-30T06:49:02;9.30;99.90
16136;DHT22;8173;48.354;9.248;2023-04-30T06:51:30;9.40;99.90
16136;DHT22;8173;48.354;9.248;2023-04-30T06:53:58;9.50;99.90
16136;DHT22;8173;48.354;9.248;2023-04-30T06:56:25;9.50;99.90
16136;DHT22;8173;48.354;9.248;2023-04-30T06:58:51;9.60;99.90
16136;DHT22;8173;48.354;9.248;2023-04-30T07:01:18;9.80;99.90
16136;DHT22;8173;48.354;9.248;2023-04-30T07:03:45;9.90;99.90
16136;DHT22;8173;48.354;9.248;2023-04-30T07:06:11;9.90;99.90
16136;DHT22;8173;48.354;9.248;2023-04-30T07:08:40;9.80;99.90
16136;DHT22;8173;48.354;9.248;2023-04-30T07:11:08;10.00;99.90
16136;DHT22;8173;48.354;9.248;2023-04-30T07:13:35;10.10;99.90
16136;DHT22;8173;48.354;9.248;2023-04-30T07:16:03;10.30;99.90
16136;DHT22;8173;48.354;9.248;2023-04-30T07:18:30;10.30;99.90
16136;DHT22;8173;48.354;9.248;2023-04-30T07:20:56;10.20;99.90
16136;DHT22;8173;48.354;9.248;2023-04-30T07:23:23;10.20;99.90
16136;DHT22;8173;48.354;9.248;2023-04-30T07:25:51;10.30;99.90
16136;DHT22;8173;48.354;9.248;2023-04-30T07:28:18;10.60;99.90
16136;DHT22;8173;48.354;9.248;2023-04-30T07:30:44;10.60;99.90
16136;DHT22;8173;48.354;9.248;2023-04-30T07:33:11;10.80;99.90
16136;DHT22;8173;48.354;9.248;2023-04-30T07:35:38;10.60;99.90
16136;DHT22;8173;48.354;9.248;2023-04-30T07:38:05;10.70;99.90
16136;DHT22;8173;48.354;9.248;2023-04-30T07:40:31;10.80;99.90
16136;DHT22;8173;48.354;9.248;2023-04-30T07:42:59;10.70;99.90
16136;DHT22;8173;48.354;9.248;2023-04-30T07:45:26;11.10;99.90
16136;DHT22;8173;48.354;9.248;2023-04-30T07:47:53;11.20;99.90
16136;DHT22;8173;48.354;9.248;2023-04-30T07:50:20;11.20;99.90
16136;DHT22;8173;48.354;9.248;2023-04-30T07:52:48;11.10;99.90
16136;DHT22;8173;48.354;9.248;2023-04-30T07:55:15;11.30;99.90
16136;DHT22;8173;48.354;9.248;2023-04-30T07:57:41;11.80;99.90
16136;DHT22;8173;48.354;9.248;2023-04-30T08:00:10;11.90;99.90
16136;DHT22;8173;48.354;9.248;2023-04-30T08:02:37;12.30;99.90
16136;DHT22;8173;48.354;9.248;2023-04-30T08:05:05;12.60;99.90
16136;DHT22;8173;48.354;9.248;2023-04-30T08:07:31;13.00;99.90
16136;DHT22;8173;48.354;9.248;2023-04-30T08:09:58;13.30;99.90
16136;DHT22;8173;48.354;9.248;2023-04-30T08:12:25;13.60;99.90
16136;DHT22;8173;48.354;9.248;2023-04-30T08:14:58;13.90;99.90
16136;DHT22;8173;48.354;9.248;2023-04-30T08:17:27;14.00;99.90
16136;DHT22;8173;48.354;9.248;2023-04-30T08:19:53;14.00;99.90
16136;DHT22;8173;48.354;9.248;2023-04-30T08:22:21;13.90;99.90
16136;DHT22;8173;48.354;9.248;2023-04-30T08:24:47;13.80;99.90
16136;DHT22;8173;48.354;9.248;2023-04-30T08:27:15;13.70;99.90
16136;DHT22;8173;48.354;9.248;2023-04-30T08:29:41;13.60;99.90
16136;DHT22;8173;48.354;9.248;2023-04-30T08:32:08;13.70;99.90
16136;DHT22;8173;48.354;9.248;2023-04-30T08:34:36;13.90;99.90
16136;DHT22;8173;48.354;9.248;2023-04-30T08:37:05;14.20;99.90
16136;DHT22;8173;48.354;9.248;2023-04-30T08:39:31;14.50;99.90
16136;DHT22;8173;48.354;9.248;2023-04-30T08:42:01;14.70;99.90
16136;DHT22;8173;48.354;9.248;2023-04-30T08:44:29;15.00;99.90
16136;DHT22;8173;48.354;9.248;2023-04-30T08:46:56;15.00;99.90
16136;DHT22;8173;48.354;9.248;2023-04-30T08:49:24;15.50;99.90
16136;DHT22;8173;48.354;9.248;2023-04-30T08:51:52;15.40;99.90
16136;DHT22;8173;48.354;9.248;2023-04-30T08:54:19;15.10;99.90
16136;DHT22;8173;48.354;9.248;2023-04-30T08:56:47;15.40;99.90
16136;DHT22;8173;48.354;9.248;2023-04-30T08:59:14;15.80;99.90
16136;DHT22;8173;48.354;9.248;2023-04-30T09:01:41;15.60;99.90
16136;DHT22;8173;48.354;9.248;2023-04-30T09:04:07;14.80;99.90
16136;DHT22;8173;48.354;9.248;2023-04-30T09:06:34;14.30;99.90
16136;DHT22;8173;48.354;9.248;2023-04-30T09:09:10;15.00;99.90
16136;DHT22;8173;48.354;9.248;2023-04-30T09:11:37;15.00;99.90
16136;DHT22;8173;48.354;9.248;2023-04-30T09:14:03;15.10;99.90
16136;DHT22;8173;48.354;9.248;2023-04-30T09:16:44;15.10;99.90
16136;DHT22;8173;48.354;9.248;2023-04-30T09:19:22;15.20;99.90
16136;DHT22;8173;48.354;9.248;2023-04-30T09:21:49;14.90;99.90
16136;DHT22;8173;48.354;9.248;2023-04-30T09:24:17;14.70;99.90
16136;DHT22;8173;48.354;9.248;2023-04-30T09:26:44;14.50;99.90
16136;DHT22;8173;48.354;9.248;2023-04-30T09:29:12;14.60;99.90
16136;DHT22;8173;48.354;9.248;2023-04-30T09:31:45;14.70;99.90
16136;DHT22;8173;48.354;9.248;2023-04-30T09:34:12;14.40;99.90
16136;DHT22;8173;48.354;9.248;2023-04-30T09:36:51;14.00;99.90
16136;DHT22;8173;48.354;9.248;2023-04-30T09:39:20;13.90;99.90
16136;DHT22;8173;48.354;9.248;2023-04-30T09:41:47;14.00;99.90
16136;DHT22;8173;48.354;9.248;2023-04-30T09:44:28;14.10;99.90
16136;DHT22;8173;48.354;9.248;2023-04-30T09:46:55;14.20;99.90
16136;DHT22;8173;48.354;9.248;2023-04-30T09:49:23;14.30;99.90
16136;DHT22;8173;48.354;9.248;2023-04-30T09:54:24;14.30;99.90
16136;DHT22;8173;48.354;9.248;2023-04-30T09:56:52;14.50;99.90
16136;DHT22;8173;48.354;9.248;2023-04-30T09:59:21;14.40;99.90
16136;DHT22;8173;48.354;9.248;2023-04-30T10:01:49;14.40;99.90
16136;DHT22;8173;48.354;9.248;2023-04-30T10:04:16;14.20;99.90
16136;DHT22;8173;48.354;9.248;2023-04-30T10:06:45;14.10;99.90
16136;DHT22;8173;48.354;9.248;2023-04-30T10:09:12;14.20;99.90
16136;DHT22;8173;48.354;9.248;2023-04-30T10:11:42;14.30;99.90
16136;DHT22;8173;48.354;9.248;2023-04-30T10:14:11;14.20;99.90
16136;DHT22;8173;48.354;9.248;2023-04-30T10:16:42;14.00;99.90
16136;DHT22;8173;48.354;9.248;2023-04-30T10:19:13;13.70;99.90
16136;DHT22;8173;48.354;9.248;2023-04-30T10:21:42;13.40;99.90
16136;DHT22;8173;48.354;9.248;2023-04-30T10:24:12;13.50;99.90
16136;DHT22;8173;48.354;9.248;2023-04-30T10:26:40;13.60;99.90
16136;DHT22;8173;48.354;9.248;2023-04-30T10:29:08;13.50;99.90
16136;DHT22;8173;48.354;9.248;2023-04-30T10:31:36;13.60;99.90
16136;DHT22;8173;48.354;9.248;2023-04-30T10:34:14;13.40;99.90
16136;DHT22;8173;48.354;9.248;2023-04-30T10:36:46;13.30;99.90
16136;DHT22;8173;48.354;9.248;2023-04-30T10:41:45;13.80;99.90
16136;DHT22;8173;48.354;9.248;2023-04-30T10:44:13;14.50;99.90
16136;DHT22;8173;48.354;9.248;2023-04-30T10:46:41;15.20;99.90
16136;DHT22;8173;48.354;9.248;2023-04-30T10:49:07;15.70;99.90
16136;DHT22;8173;48.354;9.248;2023-04-30T10:51:48;15.90;99.90
16136;DHT22;8173;48.354;9.248;2023-04-30T10:54:21;15.90;99.90
16136;DHT22;8173;48.354;9.248;2023-04-30T10:56:50;15.80;99.90
16136;DHT22;8173;48.354;9.248;2023-04-30T10:59:19;16.00;99.90
16136;DHT22;8173;48.354;9.248;2023-04-30T11:01:59;16.20;99.90
16136;DHT22;8173;48.354;9.248;2023-04-30T11:04:27;16.20;99.90
16136;DHT22;8173;48.354;9.248;2023-04-30T11:07:05;16.10;99.90
16136;DHT22;8173;48.354;9.248;2023-04-30T11:09:39;15.70;99.90
16136;DHT22;8173;48.354;9.248;2023-04-30T11:12:12;15.40;99.90
16136;DHT22;8173;48.354;9.248;2023-04-30T11:14:41;15.30;99.90
16136;DHT22;8173;48.354;9.248;2023-04-30T11:17:09;15.50;99.90
16136;DHT22;8173;48.354;9.248;2023-04-30T11:19:45;15.50;99.90
16136;DHT22;8173;48.354;9.248;2023-04-30T11:22:17;15.60;99.90
16136;DHT22;8173;48.354;9.248;2023-04-30T11:25:03;15.40;99.90
16136;DHT22;8173;48.354;9.248;2023-04-30T11:27:32;15.00;99.90
16136;DHT22;8173;48.354;9.248;2023-04-30T11:30:00;15.20;99.90
16136;DHT22;8173;48.354;9.248;2023-04-30T11:32:32;15.40;99.90
16136;DHT22;8173;48.354;9.248;2023-04-30T11:34:59;15.70;99.90
16136;DHT22;8173;48.354;9.248;2023-04-30T11:37:30;15.80;99.90
16136;DHT22;8173;48.354;9.248;2023-04-30T11:39:59;16.00;99.90
16136;DHT22;8173;48.354;9.248;2023-04-30T11:42:27;16.20;99.90
16136;DHT22;8173;48.354;9.248;2023-04-30T11:45:04;16.30;99.90
16136;DHT22;8173;48.354;9.248;2023-04-30T11:47:41;16.30;99.90
16136;DHT22;8173;48.354;9.248;2023-04-30T11:50:10;16.40;99.90
16136;DHT22;8173;48.354;9.248;2023-04-30T11:52:37;16.10;99.90
16136;DHT22;8173;48.354;9.248;2023-04-30T11:55:12;16.10;99.90
16136;DHT22;8173;48.354;9.248;2023-04-30T11:57:40;16.10;99.90
16136;DHT22;8173;48.354;9.248;2023-04-30T12:00:13;16.40;99.90
16136;DHT22;8173;48.354;9.248;2023-04-30T12:02:41;15.90;99.90
16136;DHT22;8173;48.354;9.248;2023-04-30T12:05:13;15.60;99.90
16136;DHT22;8173;48.354;9.248;2023-04-30T12:07:48;15.50;99.90
16136;DHT22;8173;48.354;9.248;2023-04-30T12:10:15;15.40;99.90
16136;DHT22;8173;48.354;9.248;2023-04-30T12:12:42;15.70;99.90
16136;DHT22;8173;48.354;9.248;2023-04-30T12:15:13;16.10;99.90
16136;DHT22;8173;48.354;9.248;2023-04-30T12:17:40;16.50;99.90
16136;DHT22;8173;48.354;9.248;2023-04-30T12:20:08;16.90;99.90
16136;DHT22;8173;48.354;9.248;2023-04-30T12:22:35;16.80;99.90
16136;DHT22;8173;48.354;9.248;2023-04-30T12:25:05;16.80;99.90
16136;DHT22;8173;48.354;9.248;2023-04-30T12:27:34;16.90;99.90
16136;DHT22;8173;48.354;9.248;2023-04-30T12:30:02;17.10;99.90
16136;DHT22;8173;48.354;9.248;2023-04-30T12:32:36;17.30;99.90
16136;DHT22;8173;48.354;9.248;2023-04-30T12:35:04;17.10;99.90
16136;DHT22;8173;48.354;9.248;2023-04-30T12:37:31;17.10;99.90
16136;DHT22;8173;48.354;9.248;2023-04-30T12:39:58;17.50;99.90
16136;DHT22;8173;48.354;9.248;2023-04-30T12:42:30;17.80;99.90
16136;DHT22;8173;48.354;9.248;2023-04-30T12:44:58;17.60;99.90
16136;DHT22;8173;48.354;9.248;2023-04-30T12:47:25;17.30;99.90
16136;DHT22;8173;48.354;9.248;2023-04-30T12:49:54;17.30;99.90
16136;DHT22;8173;48.354;9.248;2023-04-30T12:52:23;17.90;99.90
16136;DHT22;8173;48.354;9.248;2023-04-30T12:54:51;17.80;99.90
16136;DHT22;8173;48.354;9.248;2023-04-30T12:57:18;17.60;99.90
16136;DHT22;8173;48.354;9.248;2023-04-30T12:59:58;17.50;99.90
16136;DHT22;8173;48.354;9.248;2023-04-30T13:02:27;17.80;99.90
16136;DHT22;8173;48.354;9.248;2023-04-30T13:04:58;17.70;99.90
16136;DHT22;8173;48.354;9.248;2023-04-30T13:07:24;17.40;99.90
16136;DHT22;8173;48.354;9.248;2023-04-30T13:09:51;17.10;99.90
16136;DHT22;8173;48.354;9.248;2023-04-30T13:12:18;16.80;99.90
16136;DHT22;8173;48.354;9.248;2023-04-30T13:14:45;16.30;99.90
16136;DHT22;8173;48.354;9.248;2023-04-30T13:17:11;15.90;99.90
16136;DHT22;8173;48.354;9.248;2023-04-30T13:19:38;16.20;99.90
16136;DHT22;8173;48.354;9.248;2023-04-30T13:22:06;16.50;99.90
16136;DHT22;8173;48.354;9.248;2023-04-30T13:24:33;16.50;99.90
16136;DHT22;8173;48.354;9.248;2023-04-30T13:27:00;16.10;99.90
16136;DHT22;8173;48.354;9.248;2023-04-30T13:29:27;16.00;99.90
16136;DHT22;8173;48.354;9.248;2023-04-30T13:31:54;16.00;99.90
16136;DHT22;8173;48.354;9.248;2023-04-30T13:34:20;15.70;99.90
16136;DHT22;8173;48.354;9.248;2023-04-30T13:36:47;15.50;99.90
16136;DHT22;8173;48.354;9.248;2023-04-30T13:39:15;15.50;99.90
16136;DHT22;8173;48.354;9.248;2023-04-30T13:41:42;15.50;99.90
16136;DHT22;8173;48.354;9.248;2023-04-30T13:44:09;15.30;99.90
16136;DHT22;8173;48.354;9.248;2023-04-30T13:46:37;15.40;99.90
16136;DHT22;8173;48.354;9.248;2023-04-30T13:49:03;15.60;99.90
16136;DHT22;8173;48.354;9.248;2023-04-30T13:51:30;16.10;99.90
16136;DHT22;8173;48.354;9.248;2023-04-30T13:53:57;16.80;99.90
16136;DHT22;8173;48.354;9.248;2023-04-30T13:56:25;17.60;99.90
16136;DHT22;8173;48.354;9.248;2023-04-30T13:58:52;18.10;99.90
16136;DHT22;8173;48.354;9.248;2023-04-30T14:01:18;18.10;99.90
16136;DHT22;8173;48.354;9.248;2023-04-30T14:03:45;18.10;99.90
16136;DHT22;8173;48.354;9.248;2023-04-30T14:06:12;17.50;99.90
16136;DHT22;8173;48.354;9.248;2023-04-30T14:08:39;17.10;99.90
16136;DHT22;8173;48.354;9.248;2023-04-30T14:11:06;16.90;99.90
16136;DHT22;8173;48.354;9.248;2023-04-30T14:13:34;16.80;99.90
16136;DHT22;8173;48.354;9.248;2023-04-30T14:16:01;17.10;99.90
16136;DHT22;8173;48.354;9.248;2023-04-30T14:18:27;17.40;99.90
16136;DHT22;8173;48.354;9.248;2023-04-30T14:20:54;16.50;99.90
16136;DHT22;8173;48.354;9.248;2023-04-30T14:23:21;15.70;99.90
16136;DHT22;8173;48.354;9.248;2023-04-30T14:25:47;15.80;99.90
16136;DHT22;8173;48.354;9.248;2023-04-30T14:28:14;15.90;99.90
16136;DHT22;8173;48.354;9.248;2023-04-30T14:30:42;16.20;99.90
16136;DHT22;8173;48.354;9.248;2023-04-30T14:33:09;16.40;99.90
16136;DHT22;8173;48.354;9.248;2023-04-30T14:35:37;16.00;99.90
16136;DHT22;8173;48.354;9.248;2023-04-30T14:38:04;16.00;99.90
16136;DHT22;8173;48.354;9.248;2023-04-30T14:40:30;16.00;99.90
16136;DHT22;8173;48.354;9.248;2023-04-30T14:42:57;16.20;99.90
16136;DHT22;8173;48.354;9.248;2023-04-30T14:45:24;16.80;99.90
16136;DHT22;8173;48.354;9.248;2023-04-30T14:47:53;17.00;99.90
16136;DHT22;8173;48.354;9.248;2023-04-30T14:50:20;17.10;99.90
16136;DHT22;8173;48.354;9.248;2023-04-30T14:52:48;16.60;99.90
16136;DHT22;8173;48.354;9.248;2023-04-30T14:55:15;16.50;99.90
16136;DHT22;8173;48.354;9.248;2023-04-30T14:57:42;16.00;99.90
16136;DHT22;8173;48.354;9.248;2023-04-30T15:00:09;15.60;99.90
16136;DHT22;8173;48.354;9.248;2023-04-30T15:02:36;15.50;99.90
16136;DHT22;8173;48.354;9.248;2023-04-30T15:05:05;15.80;99.90
16136;DHT22;8173;48.354;9.248;2023-04-30T15:07:32;16.10;99.90
16136;DHT22;8173;48.354;9.248;2023-04-30T15:09:59;16.30;99.90
16136;DHT22;8173;48.354;9.248;2023-04-30T15:12:26;16.30;99.90
16136;DHT22;8173;48.354;9.248;2023-04-30T15:14:52;15.90;99.90
16136;DHT22;8173;48.354;9.248;2023-04-30T15:17:20;15.30;99.90
16136;DHT22;8173;48.354;9.248;2023-04-30T15:19:46;15.00;99.90
16136;DHT22;8173;48.354;9.248;2023-04-30T15:22:14;15.00;99.90
16136;DHT22;8173;48.354;9.248;2023-04-30T15:24:41;14.90;99.90
16136;DHT22;8173;48.354;9.248;2023-04-30T15:27:08;14.80;99.90
16136;DHT22;8173;48.354;9.248;2023-04-30T15:29:35;14.80;99.90
16136;DHT22;8173;48.354;9.248;2023-04-30T15:32:04;15.10;99.90
16136;DHT22;8173;48.354;9.248;2023-04-30T15:34:31;15.50;99.90
16136;DHT22;8173;48.354;9.248;2023-04-30T15:36:58;15.50;99.90
16136;DHT22;8173;48.354;9.248;2023-04-30T15:39:26;15.00;99.90
16136;DHT22;8173;48.354;9.248;2023-04-30T15:41:52;14.60;99.90
16136;DHT22;8173;48.354;9.248;2023-04-30T15:44:19;14.30;99.90
16136;DHT22;8173;48.354;9.248;2023-04-30T15:46:46;14.30;99.90
16136;DHT22;8173;48.354;9.248;2023-04-30T15:49:14;14.30;99.90
16136;DHT22;8173;48.354;9.248;2023-04-30T15:51:41;14.30;99.90
16136;DHT22;8173;48.354;9.248;2023-04-30T15:54:09;14.10;99.90
16136;DHT22;8173;48.354;9.248;2023-04-30T15:56:39;14.10;99.90
16136;DHT22;8173;48.354;9.248;2023-04-30T15:59:06;14.10;99.90
16136;DHT22;8173;48.354;9.248;2023-04-30T16:01:32;14.10;99.90
16136;DHT22;8173;48.354;9.248;2023-04-30T16:03:59;14.10;99.90